KCIU/CIU METAR and TAF weather

Enter ICAO airport designator
Station Type Date Time Source
KCIU METAR 2022/11/27 08:56 UTC NOAA

KCIU 270856Z AUTO 29005KT 10SM CLR 02/01 A2964 RMK AO2 SLP043 T00170006 50002 FZRANO


Station Type Date Time Source
KCIU Decoded METAR 2022/11/27 08:56 UTC NOAA

Sault Ste Marie, Chippewa County International Airport, MI, United States (KCIU) 46-15N 084-28W
Nov 27, 2022 - 03:56 AM EST / 2022.11.27 0856 UTC
Wind: from the WNW (290 degrees) at 6 MPH (5 KT):0
Visibility: 10 mile(s):0
Sky conditions: clear
Temperature: 35.1 F (1.7 C)
Dew Point: 33.1 F (0.6 C)
Relative Humidity: 92%
Pressure (altimeter): 29.64 in. Hg (1003 hPa)
Pressure tendency: 0.01 inches (0.2 hPa) higher than three hours ago
ob: KCIU 270856Z AUTO 29005KT 10SM CLR 02/01 A2964 RMK AO2 SLP043 T00170006 50002 FZRANO
cycle: 9

Station Type Date Time Source
KCIU TAF 2022/11/27 06:22 UTC NOAA

TAF KCIU 270520Z 2706/2806 26005KT P6SM BKN240
FM271100 VRB03KT P6SM OVC120
FM271400 02007KT P6SM OVC050
FM271600 02007KT P6SM OVC019
FM272200 36009G16KT P6SM BKN030
FM280200 35010KT P6SM SCT050

Example: see airport list